Terminal Aerodrome Forecast
Issued by NWS North Platte, NE

Home | Current Version | Previous Version | Graphics & Text | Print | Product List | Glossary On
Versions: 1 2 3 4 5 6 7 8 9 10 11 12 13 14 15 16 17 18 19
000
FTUS43 KLBF 152321
TAFVTN
TAF
KVTN 152321Z 1600/1624 09013KT P6SM VCTS BKN100CB
      TEMPO 1601/1603 4SM TSRAGS BKN040CB
     FM160300 15007KT P6SM TSRA OVC040CB
     FM160700 34006KT P6SM -SHRA OVC020
     FM161000 33006KT P6SM OVC012
     FM161700 34010KT P6SM OVC030=

USA.gov is the U.S. government's official web portal to all federal, state and local government web resources and services.